createdAt,value
2019-04-28T00:01:43.389Z,13.20
2019-04-28T00:04:22.019Z,13.00
2019-04-28T00:06:55.073Z,12.80
2019-04-28T00:09:37.128Z,12.80
2019-04-28T00:12:11.452Z,14.90
2019-04-28T00:14:45.732Z,13.00
2019-04-28T00:17:26.709Z,12.80
2019-04-28T00:20:38.102Z,12.30
2019-04-28T00:23:13.117Z,11.70
2019-04-28T00:25:46.187Z,11.60
2019-04-28T00:28:21.232Z,14.00
2019-04-28T00:30:55.662Z,11.00
2019-04-28T00:36:21.697Z,11.20
2019-04-28T00:39:56.638Z,11.20
2019-04-28T00:41:31.030Z,11.20
2019-04-28T00:44:06.360Z,13.90
2019-04-28T00:46:41.430Z,11.50
2019-04-28T00:52:12.287Z,11.30
2019-04-28T01:08:02.948Z,12.40
2019-04-28T01:10:37.735Z,12.50
2019-04-28T01:13:08.452Z,12.50
2019-04-28T01:16:22.103Z,12.50
2019-04-28T01:18:53.449Z,12.50
2019-04-28T01:21:27.474Z,12.70
2019-04-28T01:23:59.752Z,12.70
2019-04-28T01:26:30.785Z,12.70
2019-04-28T01:29:49.839Z,12.60
2019-04-28T01:32:39.889Z,12.60
2019-04-28T01:35:10.560Z,12.70
2019-04-28T01:38:09.950Z,12.80
2019-04-28T01:40:44.546Z,12.80
2019-04-28T01:46:11.063Z,12.70
2019-04-28T01:48:41.928Z,12.70
2019-04-28T01:51:15.278Z,12.70
2019-04-28T01:53:51.807Z,11.70
2019-04-28T01:57:17.766Z,12.70
2019-04-28T01:59:49.977Z,12.30
2019-04-28T02:05:27.153Z,12.10
2019-04-28T02:08:00.224Z,12.10
2019-04-28T02:10:30.511Z,12.30
2019-04-28T02:13:06.938Z,12.50
2019-04-28T02:15:40.054Z,12.60
2019-04-28T02:18:20.015Z,12.50
2019-04-28T02:20:51.852Z,12.50
2019-04-28T02:23:26.730Z,12.60
2019-04-28T02:25:56.530Z,12.60
2019-04-28T02:28:32.267Z,12.60
2019-04-28T02:31:11.295Z,12.60
2019-04-28T02:33:40.778Z,12.50
2019-04-28T02:36:16.674Z,12.70
2019-04-28T02:38:47.419Z,12.60
2019-04-28T02:41:30.634Z,12.60
2019-04-28T02:44:01.065Z,12.70
2019-04-28T02:46:34.216Z,12.70
2019-04-28T02:49:10.977Z,12.30
2019-04-28T02:52:00.037Z,12.30
2019-04-28T02:54:44.770Z,12.20
2019-04-28T02:57:20.818Z,11.40
2019-04-28T02:59:52.807Z,12.30
2019-04-28T03:02:28.225Z,12.40
2019-04-28T03:05:01.584Z,12.30
2019-04-28T03:07:31.589Z,12.10
2019-04-28T03:10:04.075Z,11.60
2019-04-28T03:12:37.402Z,11.50
2019-04-28T03:15:10.362Z,11.40
2019-04-28T03:17:43.901Z,11.40
2019-04-28T03:20:20.946Z,11.20
2019-04-28T03:22:55.252Z,10.90
2019-04-28T03:25:33.582Z,10.30
2019-04-28T03:28:14.077Z,10.30
2019-04-28T03:30:57.318Z,10.40
2019-04-28T03:33:34.025Z,10.10
2019-04-28T03:36:06.982Z,10.30
2019-04-28T03:38:37.479Z,10.40
2019-04-28T03:41:11.203Z,10.70
2019-04-28T03:43:46.326Z,12.40
2019-04-28T03:46:20.572Z,10.50
2019-04-28T03:48:55.738Z,10.90
2019-04-28T03:51:30.529Z,11.10
2019-04-28T03:54:06.670Z,11.40
2019-04-28T03:56:41.315Z,11.70
2019-04-28T03:59:17.152Z,11.90
2019-04-28T04:02:11.306Z,11.90
2019-04-28T04:04:41.623Z,12.00
2019-04-28T04:07:11.968Z,12.00
2019-04-28T04:09:51.422Z,12.00
2019-04-28T04:12:41.186Z,12.00
2019-04-28T04:15:21.352Z,12.10
2019-04-28T04:18:11.063Z,12.20
2019-04-28T04:20:42.358Z,12.10
2019-04-28T04:23:14.747Z,12.10
2019-04-28T04:25:46.754Z,12.10
2019-04-28T04:28:23.314Z,12.10
2019-04-28T04:31:00.513Z,11.90
2019-04-28T04:33:31.079Z,11.20
2019-04-28T04:36:02.433Z,10.60
2019-04-28T04:38:43.306Z,10.50
2019-04-28T04:41:12.808Z,10.40
2019-04-28T04:43:44.998Z,10.20
2019-04-28T04:46:21.904Z,10.30
2019-04-28T04:48:54.403Z,10.60
2019-04-28T04:51:25.865Z,10.50
2019-04-28T04:54:02.264Z,10.60
2019-04-28T04:56:36.701Z,10.50
2019-04-28T04:59:26.768Z,10.30
2019-04-28T05:02:02.662Z,10.10
2019-04-28T05:04:34.339Z,10.30
2019-04-28T05:07:07.866Z,10.30
2019-04-28T05:09:36.794Z,10.00
2019-04-28T05:12:12.127Z,10.10
2019-04-28T05:14:43.002Z,10.00
2019-04-28T05:17:13.080Z,10.00
2019-04-28T05:19:59.717Z,10.10
2019-04-28T05:22:33.261Z,9.90
2019-04-28T05:25:20.432Z,10.20
2019-04-28T05:27:54.482Z,10.30
2019-04-28T05:30:27.072Z,10.40
2019-04-28T05:33:00.347Z,10.40
2019-04-28T05:35:35.492Z,10.60
2019-04-28T05:38:04.327Z,10.40
2019-04-28T05:40:35.092Z,10.30
2019-04-28T05:43:16.226Z,10.30
2019-04-28T05:45:49.900Z,10.40
2019-04-28T05:48:24.117Z,10.20
2019-04-28T05:51:03.334Z,10.10
2019-04-28T05:53:44.249Z,10.10
2019-04-28T05:56:20.368Z,10.10
2019-04-28T05:58:56.766Z,10.30
2019-04-28T06:01:30.582Z,10.50
2019-04-28T06:04:01.031Z,10.40
2019-04-28T06:06:36.353Z,10.20
2019-04-28T06:09:10.256Z,10.00
2019-04-28T06:11:42.101Z,12.70
2019-04-28T06:14:13.611Z,10.20
2019-04-28T06:16:54.457Z,10.30
2019-04-28T06:19:26.030Z,10.60
2019-04-28T06:21:56.030Z,11.00
2019-04-28T06:24:30.117Z,11.10
2019-04-28T06:27:07.391Z,11.10
2019-04-28T06:29:39.638Z,11.10
2019-04-28T06:32:09.848Z,11.20
2019-04-28T06:34:41.377Z,11.30
2019-04-28T06:37:13.639Z,11.40
2019-04-28T06:39:49.293Z,11.50
2019-04-28T06:42:22.100Z,11.60
2019-04-28T06:44:57.321Z,12.50
2019-04-28T06:47:31.950Z,13.60
2019-04-28T06:50:05.245Z,13.40
2019-04-28T06:52:37.535Z,14.00
2019-04-28T06:55:14.599Z,14.50
2019-04-28T06:57:51.394Z,14.70
2019-04-28T07:00:22.398Z,14.50
2019-04-28T07:02:56.446Z,14.60
2019-04-28T07:05:34.653Z,14.60
2019-04-28T07:08:13.994Z,14.40
2019-04-28T07:10:51.541Z,14.30
2019-04-28T07:13:22.565Z,14.20
2019-04-28T07:15:53.098Z,14.00
2019-04-28T07:18:24.763Z,13.80
2019-04-28T07:21:01.238Z,14.20
2019-04-28T07:23:34.790Z,13.70
2019-04-28T07:26:07.024Z,13.10
2019-04-28T07:28:46.716Z,12.90
2019-04-28T07:31:15.608Z,12.90
2019-04-28T07:33:54.019Z,13.60
2019-04-28T07:36:24.582Z,14.10
2019-04-28T07:38:57.426Z,14.60
2019-04-28T07:41:31.352Z,14.60
2019-04-28T07:44:02.777Z,14.10
2019-04-28T07:46:41.021Z,14.20
2019-04-28T07:49:11.362Z,13.30
2019-04-28T07:51:52.489Z,12.60
2019-04-28T07:54:31.101Z,12.00
2019-04-28T07:57:08.369Z,12.50
2019-04-28T07:59:41.084Z,13.70
2019-04-28T08:02:20.236Z,14.00
2019-04-28T08:04:53.839Z,14.30
2019-04-28T08:07:29.699Z,15.20
2019-04-28T08:10:10.150Z,14.10
2019-04-28T08:12:36.819Z,13.40
2019-04-28T08:15:06.873Z,14.00
2019-04-28T08:17:38.213Z,14.70
2019-04-28T08:20:10.422Z,15.00
2019-04-28T08:22:40.549Z,15.30
2019-04-28T08:25:12.801Z,15.60
2019-04-28T08:27:45.306Z,15.60
2019-04-28T08:30:21.826Z,15.50
2019-04-28T08:33:06.639Z,14.40
2019-04-28T08:35:42.553Z,15.70
2019-04-28T08:38:12.273Z,15.20
2019-04-28T08:40:48.356Z,15.60
2019-04-28T08:43:19.631Z,15.60
2019-04-28T08:45:50.863Z,15.70
2019-04-28T08:48:26.764Z,15.90
2019-04-28T08:51:05.245Z,15.80
2019-04-28T08:53:34.521Z,15.60
2019-04-28T08:56:06.265Z,15.10
2019-04-28T08:58:38.244Z,15.10
2019-04-28T09:01:10.094Z,15.20
2019-04-28T09:03:43.247Z,14.50
2019-04-28T09:06:23.003Z,13.70
2019-04-28T09:08:52.947Z,13.20
2019-04-28T09:11:27.092Z,12.50
2019-04-28T09:14:01.011Z,12.60
2019-04-28T09:16:37.282Z,12.20
2019-04-28T09:19:08.636Z,12.60
2019-04-28T09:21:38.537Z,12.40
2019-04-28T09:24:14.509Z,12.40
2019-04-28T09:26:43.848Z,12.50
2019-04-28T09:29:14.248Z,12.50
2019-04-28T09:31:45.728Z,12.80
2019-04-28T09:34:27.572Z,13.00
2019-04-28T09:36:49.253Z,13.00
2019-04-28T09:39:24.550Z,13.10
2019-04-28T09:42:12.216Z,13.60
2019-04-28T09:44:46.467Z,14.00
2019-04-28T09:47:21.388Z,14.30
2019-04-28T09:49:56.086Z,14.30
2019-04-28T09:52:26.238Z,14.60
2019-04-28T09:54:56.716Z,14.40
2019-04-28T09:57:37.969Z,14.10
2019-04-28T10:00:16.321Z,14.20
2019-04-28T10:02:48.408Z,14.40
2019-04-28T10:05:26.711Z,14.30
2019-04-28T10:07:58.062Z,14.00
2019-04-28T10:10:32.617Z,13.70
2019-04-28T10:13:06.370Z,14.40
2019-04-28T10:15:39.852Z,14.90
2019-04-28T10:18:20.715Z,15.00
2019-04-28T10:20:52.261Z,15.10
2019-04-28T10:23:36.535Z,14.50
2019-04-28T10:26:14.667Z,16.80
2019-04-28T10:28:49.420Z,13.90
2019-04-28T10:31:20.320Z,13.70
2019-04-28T10:33:59.344Z,14.00
2019-04-28T10:36:32.670Z,14.00
2019-04-28T10:39:09.715Z,14.30
2019-04-28T10:41:45.845Z,14.00
2019-04-28T10:44:22.082Z,14.20
2019-04-28T10:46:57.107Z,14.00
2019-04-28T10:49:29.691Z,14.20
2019-04-28T10:52:02.258Z,14.30
2019-04-28T10:54:37.783Z,14.00
2019-04-28T10:57:20.944Z,13.70
2019-04-28T10:59:57.579Z,13.80
2019-04-28T11:02:27.983Z,14.20
2019-04-28T11:05:08.805Z,12.80
2019-04-28T11:07:42.295Z,14.40
2019-04-28T11:10:20.392Z,14.80
2019-04-28T11:12:49.757Z,14.20
2019-04-28T11:15:23.606Z,14.00
2019-04-28T11:17:53.226Z,13.80
2019-04-28T11:20:25.269Z,13.80
2019-04-28T11:22:54.157Z,14.10
2019-04-28T11:25:23.844Z,14.10
2019-04-28T11:27:56.820Z,14.90
2019-04-28T11:30:30.345Z,16.10
2019-04-28T11:33:07.519Z,14.90
2019-04-28T11:35:38.834Z,15.10
2019-04-28T11:38:07.859Z,14.90
2019-04-28T11:40:37.575Z,15.60
2019-04-28T11:43:07.603Z,15.20
2019-04-28T11:45:36.754Z,15.80
2019-04-28T11:48:11.269Z,15.90
2019-04-28T11:50:45.360Z,16.20
2019-04-28T11:53:15.090Z,16.00
2019-04-28T11:55:50.032Z,15.70
2019-04-28T11:58:25.319Z,16.30
2019-04-28T12:00:56.293Z,16.30
2019-04-28T12:03:29.082Z,15.90
2019-04-28T12:05:59.916Z,15.40
2019-04-28T12:08:31.900Z,12.70
2019-04-28T12:11:14.862Z,15.10
2019-04-28T12:14:06.069Z,15.30
2019-04-28T12:16:55.563Z,15.40
2019-04-28T12:19:34.677Z,15.40
2019-04-28T12:22:06.366Z,15.30
2019-04-28T12:24:37.490Z,14.90
2019-04-28T12:27:06.832Z,15.10
2019-04-28T12:29:37.876Z,16.70
2019-04-28T12:32:08.195Z,15.30
2019-04-28T12:34:44.006Z,14.40
2019-04-28T12:37:22.140Z,15.30
2019-04-28T12:39:51.417Z,15.90
2019-04-28T12:42:22.633Z,16.00
2019-04-28T12:44:51.576Z,15.90
2019-04-28T12:47:20.956Z,15.50
2019-04-28T12:50:14.733Z,15.50
2019-04-28T12:52:48.604Z,15.30
2019-04-28T13:02:26.136Z,17.20
2019-04-28T13:04:57.988Z,17.50
2019-04-28T13:08:02.782Z,17.50
2019-04-28T13:10:34.644Z,18.50
2019-04-28T13:13:43.153Z,17.30
2019-04-28T13:16:15.296Z,16.50
2019-04-28T13:19:35.920Z,15.30
2019-04-28T13:22:08.155Z,14.70
2019-04-28T13:25:30.892Z,16.60
2019-04-28T13:28:02.582Z,14.60
2019-04-28T13:31:23.323Z,15.00
2019-04-28T13:33:58.960Z,15.20
2019-04-28T13:37:07.122Z,18.00
2019-04-28T13:39:55.461Z,16.60
2019-04-28T13:43:15.262Z,18.50
2019-04-28T13:45:51.873Z,15.10
2019-04-28T13:49:01.045Z,14.80
2019-04-28T13:51:34.767Z,14.00
2019-04-28T13:54:09.391Z,13.80
2019-04-28T13:56:39.684Z,13.60
2019-04-28T13:59:43.384Z,13.60
2019-04-28T14:02:34.151Z,13.60
2019-04-28T14:05:48.309Z,13.30
2019-04-28T14:08:25.197Z,13.50
2019-04-28T14:11:15.276Z,13.50
2019-04-28T14:13:49.319Z,14.80
2019-04-28T14:16:57.773Z,13.20
2019-04-28T14:19:27.253Z,13.00
2019-04-28T14:22:42.031Z,12.70
2019-04-28T14:25:18.922Z,12.90
2019-04-28T14:28:33.281Z,13.10
2019-04-28T14:31:11.793Z,13.10
2019-04-28T14:33:41.466Z,13.20
2019-04-28T14:36:11.403Z,13.30
2019-04-28T14:38:43.311Z,12.80
2019-04-28T14:42:12.364Z,12.90
2019-04-28T14:44:48.436Z,13.10
2019-04-28T14:47:56.690Z,13.50
2019-04-28T14:50:29.735Z,13.80
2019-04-28T14:53:50.589Z,13.40
2019-04-28T14:56:23.290Z,13.20
2019-04-28T14:59:21.011Z,13.30
2019-04-28T15:02:12.687Z,13.30
2019-04-28T15:05:48.078Z,13.60
2019-04-28T15:08:34.387Z,13.80
2019-04-28T15:11:58.721Z,13.60
2019-04-28T15:14:33.651Z,13.90
2019-04-28T15:17:21.756Z,14.00
2019-04-28T15:20:09.188Z,13.90
2019-04-28T15:22:55.444Z,13.50
2019-04-28T15:25:29.571Z,13.50
2019-04-28T15:30:52.570Z,13.70
2019-04-28T15:33:24.233Z,13.60
2019-04-28T15:36:38.748Z,13.40
2019-04-28T15:39:08.861Z,13.40
2019-04-28T15:45:22.456Z,14.30
2019-04-28T15:48:34.121Z,15.00
2019-04-28T15:51:07.193Z,13.20
2019-04-28T15:54:16.294Z,13.50
2019-04-28T15:56:51.441Z,11.20
2019-04-28T15:59:53.733Z,13.70
2019-04-28T16:05:43.133Z,13.70
2019-04-28T16:08:38.580Z,13.90
2019-04-28T16:11:37.946Z,14.10
2019-04-28T16:14:29.992Z,14.40
2019-04-28T16:17:40.192Z,14.20
2019-04-28T16:20:12.219Z,14.20
2019-04-28T16:23:13.572Z,13.60
2019-04-28T16:29:34.071Z,12.70
2019-04-28T16:32:11.352Z,13.10
2019-04-28T16:35:29.973Z,13.50
2019-04-28T16:38:03.567Z,13.20
2019-04-28T16:41:16.734Z,13.20
2019-04-28T16:43:59.275Z,13.20
2019-04-28T16:46:59.970Z,13.50
2019-04-28T16:49:38.123Z,14.00
2019-04-28T16:52:50.522Z,14.40
2019-04-28T16:55:26.653Z,14.80
2019-04-28T16:58:59.692Z,15.00
2019-04-28T17:01:56.409Z,15.30
2019-04-28T17:04:47.192Z,17.70
2019-04-28T17:07:24.488Z,15.60
2019-04-28T17:10:52.573Z,15.70
2019-04-28T17:13:38.161Z,15.60
2019-04-28T17:19:55.878Z,15.40
2019-04-28T17:23:12.427Z,15.20
2019-04-28T17:25:46.352Z,15.30
2019-04-28T17:28:58.248Z,15.20
2019-04-28T17:31:29.234Z,15.10
2019-04-28T17:34:16.360Z,15.10
2019-04-28T17:36:56.018Z,15.10
2019-04-28T17:40:07.104Z,14.90
2019-04-28T17:42:40.318Z,15.30
2019-04-28T17:48:45.467Z,14.70
2019-04-28T17:51:59.614Z,14.50
2019-04-28T17:54:39.478Z,14.40
2019-04-28T17:58:02.284Z,14.40
2019-04-28T18:00:46.417Z,14.40
2019-04-28T18:04:18.765Z,14.50
2019-04-28T18:07:04.138Z,14.40
2019-04-28T18:16:53.586Z,14.30
2019-04-28T18:19:37.713Z,14.30
2019-04-28T18:22:34.554Z,16.70
2019-04-28T18:25:11.312Z,14.10
2019-04-28T18:28:22.952Z,14.10
2019-04-28T18:31:16.856Z,13.80
2019-04-28T18:37:57.736Z,16.00
2019-04-28T18:40:28.727Z,11.10
2019-04-28T18:43:18.196Z,13.60
2019-04-28T18:45:56.636Z,15.60
2019-04-28T18:48:30.089Z,13.60
2019-04-28T18:51:46.801Z,13.60
2019-04-28T18:54:18.956Z,13.50
2019-04-28T18:57:36.223Z,13.30
2019-04-28T19:00:16.556Z,13.40
2019-04-28T19:03:36.320Z,13.30
2019-04-28T19:06:14.564Z,13.30
2019-04-28T19:16:34.711Z,13.00
2019-04-28T19:22:04.622Z,12.60
2019-04-28T19:28:17.372Z,12.20
2019-04-28T19:31:01.474Z,11.90
2019-04-28T19:34:10.647Z,12.10
2019-04-28T19:36:46.373Z,12.20
2019-04-28T19:39:18.319Z,12.40
2019-04-28T19:45:32.455Z,13.10
2019-04-28T19:48:52.114Z,14.20
2019-04-28T19:51:40.192Z,12.00
2019-04-28T19:55:01.643Z,12.10
2019-04-28T19:57:41.570Z,12.10
2019-04-28T20:00:54.563Z,12.20
2019-04-28T20:03:30.734Z,11.90
2019-04-28T20:06:44.824Z,11.90
2019-04-28T20:09:05.678Z,12.00
2019-04-28T20:12:12.296Z,12.10
2019-04-28T20:14:51.519Z,12.10
2019-04-28T20:17:56.525Z,12.00
2019-04-28T20:20:31.825Z,12.00
2019-04-28T20:23:35.693Z,12.00
2019-04-28T20:26:07.980Z,11.70
2019-04-28T20:29:07.584Z,11.70
2019-04-28T20:31:44.088Z,11.70
2019-04-28T20:34:32.478Z,11.60
2019-04-28T20:37:21.483Z,11.70
2019-04-28T20:40:08.220Z,11.70
2019-04-28T20:43:02.019Z,11.70
2019-04-28T20:45:32.118Z,11.60
2019-04-28T20:48:08.163Z,11.50
2019-04-28T20:50:52.428Z,10.70
2019-04-28T20:53:26.440Z,11.40
2019-04-28T20:56:38.452Z,11.40
2019-04-28T20:59:13.306Z,11.40
2019-04-28T21:02:37.179Z,11.30
2019-04-28T21:05:16.241Z,11.30
2019-04-28T21:08:02.044Z,11.30
2019-04-28T21:10:39.341Z,11.30
2019-04-28T21:13:11.473Z,11.20
2019-04-28T21:15:48.388Z,11.20
2019-04-28T21:18:27.427Z,11.10
2019-04-28T21:21:15.264Z,11.00
2019-04-28T21:23:49.373Z,10.80
2019-04-28T21:33:03.671Z,10.80
2019-04-28T21:35:42.179Z,10.80
2019-04-28T21:39:06.098Z,10.70
2019-04-28T21:41:39.478Z,10.70
2019-04-28T21:45:02.638Z,10.70
2019-04-28T21:47:41.368Z,10.60
2019-04-28T21:50:36.728Z,10.50
2019-04-28T21:53:17.188Z,10.50
2019-04-28T21:59:45.365Z,10.50
2019-04-28T22:02:18.831Z,10.40
2019-04-28T22:08:25.339Z,10.50
2019-04-28T22:11:00.356Z,10.50
2019-04-28T22:16:26.333Z,10.40
2019-04-28T22:19:00.203Z,10.30
2019-04-28T22:21:44.432Z,10.20
2019-04-28T22:24:15.705Z,10.20
2019-04-28T22:27:30.979Z,10.30
2019-04-28T22:30:03.063Z,8.30
2019-04-28T22:35:09.014Z,12.70
2019-04-28T22:37:41.492Z,10.10
2019-04-28T22:40:11.211Z,9.10
2019-04-28T22:42:59.431Z,10.10
2019-04-28T22:45:33.672Z,10.10
2019-04-28T22:48:34.811Z,10.10
2019-04-28T22:51:07.400Z,10.10
2019-04-28T22:53:39.886Z,9.90
2019-04-28T22:56:47.408Z,9.70
2019-04-28T22:59:24.887Z,9.60
2019-04-28T23:04:53.968Z,9.90
2019-04-28T23:07:24.856Z,10.00
2019-04-28T23:16:59.641Z,9.90
2019-04-28T23:19:32.002Z,9.80
2019-04-28T23:24:53.335Z,9.80
2019-04-28T23:30:39.139Z,9.70
2019-04-28T23:35:49.639Z,9.60
2019-04-28T23:45:26.321Z,9.50
2019-04-28T23:47:57.352Z,9.40
2019-04-28T23:50:34.933Z,9.40
2019-04-28T23:53:09.418Z,9.40
2019-04-28T23:55:41.820Z,9.30
2019-04-28T23:58:22.913Z,9.30
